createdAt,value
2022-11-14T00:01:00.714Z,68.15
2022-11-14T00:03:50.469Z,68.92
2022-11-14T00:06:37.066Z,69.50
2022-11-14T00:09:27.339Z,68.63
2022-11-14T00:12:13.208Z,69.02
2022-11-14T00:14:59.284Z,68.69
2022-11-14T00:17:45.606Z,67.67
2022-11-14T00:20:32.374Z,69.14
2022-11-14T00:23:18.883Z,69.75
2022-11-14T00:26:06.655Z,68.76
2022-11-14T00:28:54.253Z,69.28
2022-11-14T00:31:40.517Z,70.80
2022-11-14T00:34:26.611Z,69.50
2022-11-14T00:37:12.741Z,68.75
2022-11-14T00:39:58.763Z,67.88
2022-11-14T00:42:45.081Z,68.04
2022-11-14T00:45:31.141Z,68.53
2022-11-14T00:48:17.573Z,69.05
2022-11-14T00:51:03.818Z,67.71
2022-11-14T00:53:49.908Z,68.05
2022-11-14T00:56:36.050Z,68.79
2022-11-14T00:59:22.342Z,68.54
2022-11-14T01:02:08.285Z,66.91
2022-11-14T01:04:57.099Z,68.02
2022-11-14T01:07:45.341Z,69.14
2022-11-14T01:10:31.309Z,69.00
2022-11-14T01:13:18.788Z,68.85
2022-11-14T01:16:05.797Z,68.85
2022-11-14T01:18:51.810Z,68.62
2022-11-14T01:21:38.100Z,68.04
2022-11-14T01:24:25.334Z,68.51
2022-11-14T01:27:11.398Z,68.86
2022-11-14T01:29:57.524Z,68.67
2022-11-14T01:32:43.767Z,68.61
2022-11-14T01:35:30.100Z,67.92
2022-11-14T01:38:16.225Z,65.66
2022-11-14T01:41:03.236Z,67.32
2022-11-14T01:43:49.723Z,68.55
2022-11-14T01:46:38.013Z,69.16
2022-11-14T01:49:38.326Z,67.10
2022-11-14T01:52:24.361Z,67.99
2022-11-14T01:55:10.870Z,66.76
2022-11-14T01:57:57.560Z,66.72
2022-11-14T02:00:44.458Z,67.18
2022-11-14T02:03:31.627Z,67.27
2022-11-14T02:06:20.752Z,68.17
2022-11-14T02:09:07.289Z,68.28
2022-11-14T02:11:54.686Z,68.72
2022-11-14T02:14:42.604Z,68.39
2022-11-14T02:17:30.844Z,67.85
2022-11-14T02:20:21.888Z,67.68
2022-11-14T02:23:29.953Z,67.63
2022-11-14T02:26:18.997Z,67.12
2022-11-14T02:29:06.057Z,68.45
2022-11-14T02:31:51.992Z,68.15
2022-11-14T02:34:40.143Z,68.91
2022-11-14T02:37:26.343Z,68.81
2022-11-14T02:40:12.641Z,69.39
2022-11-14T02:42:58.560Z,68.49
2022-11-14T02:45:44.826Z,68.40
2022-11-14T02:48:43.032Z,66.88
2022-11-14T02:51:41.408Z,67.20
2022-11-14T02:54:38.983Z,67.87
2022-11-14T02:57:37.460Z,67.43
2022-11-14T03:00:36.672Z,67.66
2022-11-14T03:03:33.765Z,68.19
2022-11-14T03:06:32.132Z,68.41
2022-11-14T03:09:29.684Z,67.71
2022-11-14T03:12:12.102Z,66.46
2022-11-14T03:14:54.089Z,66.87
2022-11-14T03:17:40.785Z,66.71
2022-11-14T03:20:37.233Z,66.15
2022-11-14T03:23:38.125Z,66.45
2022-11-14T03:26:34.816Z,67.41
2022-11-14T03:29:40.784Z,67.19
2022-11-14T03:32:47.268Z,66.21
2022-11-14T03:35:35.166Z,66.09
2022-11-14T03:38:25.783Z,67.29
2022-11-14T03:41:12.864Z,67.62
2022-11-14T03:43:55.205Z,67.13
2022-11-14T03:46:37.226Z,66.49
2022-11-14T03:49:19.261Z,65.53
2022-11-14T03:52:01.319Z,66.17
2022-11-14T03:54:48.391Z,67.24
2022-11-14T03:57:34.595Z,67.11
2022-11-14T04:00:21.054Z,68.36
2022-11-14T04:03:07.092Z,68.81
2022-11-14T04:05:53.338Z,68.25
2022-11-14T04:08:42.656Z,68.33
2022-11-14T04:11:29.236Z,66.78
2022-11-14T04:14:14.250Z,67.33
2022-11-14T04:17:00.457Z,67.87
2022-11-14T04:19:48.496Z,68.43
2022-11-14T04:22:30.336Z,67.75
2022-11-14T04:25:12.206Z,66.48
2022-11-14T04:27:58.575Z,66.24
2022-11-14T04:30:45.375Z,67.24
2022-11-14T04:33:31.335Z,66.83
2022-11-14T04:36:13.140Z,67.58
2022-11-14T04:38:55.400Z,66.46
2022-11-14T04:41:37.201Z,66.27
2022-11-14T04:44:48.151Z,68.72
2022-11-14T04:47:34.395Z,68.16
2022-11-14T04:50:20.405Z,66.83
2022-11-14T04:53:06.404Z,67.11
2022-11-14T04:55:52.408Z,67.71
2022-11-14T04:58:38.162Z,67.70
2022-11-14T05:01:24.039Z,67.32
2022-11-14T05:04:10.346Z,66.34
2022-11-14T05:06:56.291Z,66.04
2022-11-14T05:09:42.512Z,66.94
2022-11-14T05:12:28.517Z,67.40
2022-11-14T05:15:14.803Z,67.75
2022-11-14T05:18:01.404Z,66.60
2022-11-14T05:20:47.398Z,67.12
2022-11-14T05:23:33.477Z,67.88
2022-11-14T05:26:19.742Z,68.00
2022-11-14T05:29:05.668Z,68.23
2022-11-14T05:31:51.775Z,66.86
2022-11-14T05:34:38.361Z,67.36
2022-11-14T05:37:24.535Z,67.99
2022-11-14T05:40:11.098Z,66.75
2022-11-14T05:42:57.183Z,67.88
2022-11-14T05:45:43.288Z,68.30
2022-11-14T05:48:30.733Z,67.26
2022-11-14T05:51:16.920Z,67.99
2022-11-14T05:54:03.069Z,67.63
2022-11-14T05:56:49.259Z,67.87
2022-11-14T05:59:35.480Z,67.92
2022-11-14T06:02:21.831Z,68.77
2022-11-14T06:05:08.412Z,68.39
2022-11-14T06:07:58.838Z,67.35
2022-11-14T06:10:45.066Z,68.29
2022-11-14T06:13:32.924Z,67.92
2022-11-14T06:16:34.162Z,66.22
2022-11-14T06:19:31.808Z,66.33
2022-11-14T06:22:14.159Z,67.13
2022-11-14T06:24:56.244Z,66.20
2022-11-14T06:27:53.890Z,65.68
2022-11-14T06:30:36.232Z,67.15
2022-11-14T06:33:41.813Z,67.46
2022-11-14T06:36:24.519Z,67.90
2022-11-14T06:39:06.233Z,67.71
2022-11-14T06:41:48.270Z,67.74
2022-11-14T06:44:31.263Z,67.76
2022-11-14T06:47:12.210Z,65.45
2022-11-14T06:49:54.263Z,66.49
2022-11-14T06:52:36.222Z,68.01
2022-11-14T06:55:23.955Z,68.11
2022-11-14T07:02:23.035Z,68.37
2022-11-14T07:05:20.832Z,68.09
2022-11-14T07:08:03.575Z,67.96
2022-11-14T07:10:46.294Z,67.25
2022-11-14T07:13:28.163Z,67.73
2022-11-14T07:16:10.267Z,66.51
2022-11-14T07:18:52.585Z,66.54
2022-11-14T07:21:35.489Z,66.36
2022-11-14T07:24:27.225Z,66.45
2022-11-14T07:27:13.432Z,67.40
2022-11-14T07:29:56.419Z,66.88
2022-11-14T07:32:42.753Z,68.15
2022-11-14T07:35:28.823Z,68.71
2022-11-14T07:38:11.260Z,68.73
2022-11-14T07:41:08.485Z,68.67
2022-11-14T07:43:50.201Z,68.75
2022-11-14T07:46:32.269Z,68.84
2022-11-14T07:49:14.231Z,68.88
2022-11-14T07:52:06.214Z,69.21
2022-11-14T07:54:48.598Z,68.84
2022-11-14T07:57:33.301Z,68.21
2022-11-14T08:00:13.884Z,67.83
2022-11-14T08:02:56.172Z,67.35
2022-11-14T08:05:38.155Z,68.07
2022-11-14T08:08:24.260Z,68.03
2022-11-14T08:11:07.608Z,68.17
2022-11-14T08:13:52.481Z,68.45
2022-11-14T08:16:51.897Z,70.01
2022-11-14T08:19:34.247Z,69.50
2022-11-14T08:22:16.191Z,69.86
2022-11-14T08:24:58.290Z,69.67
2022-11-14T08:27:41.200Z,68.84
2022-11-14T08:30:23.186Z,67.09
2022-11-14T08:33:06.560Z,67.98
2022-11-14T08:35:50.255Z,67.50
2022-11-14T08:38:43.128Z,67.47
2022-11-14T08:41:49.332Z,66.27
2022-11-14T08:44:31.233Z,66.38
2022-11-14T08:47:13.212Z,65.51
2022-11-14T08:49:55.192Z,64.31
2022-11-14T08:52:37.122Z,64.91
2022-11-14T08:55:20.598Z,64.10
2022-11-14T08:58:03.390Z,66.68
2022-11-14T09:00:45.666Z,65.50
2022-11-14T09:03:32.992Z,63.07
2022-11-14T09:06:15.258Z,62.44
2022-11-14T09:08:58.040Z,61.81
2022-11-14T09:11:44.243Z,62.46
2022-11-14T09:14:26.211Z,62.19
2022-11-14T09:17:12.335Z,61.79
2022-11-14T09:19:54.346Z,61.28
2022-11-14T09:22:36.154Z,61.72
2022-11-14T09:25:18.190Z,61.50
2022-11-14T09:28:18.044Z,60.80
2022-11-14T09:31:08.461Z,61.21
2022-11-14T09:33:50.183Z,60.02
2022-11-14T09:36:37.441Z,60.46
2022-11-14T09:39:23.741Z,60.53
2022-11-14T09:42:20.132Z,60.95
2022-11-14T09:45:15.376Z,60.62
2022-11-14T09:48:11.938Z,61.85
2022-11-14T09:51:05.044Z,58.48
2022-11-14T09:53:57.459Z,57.07
2022-11-14T09:56:50.677Z,59.12
2022-11-14T09:59:56.791Z,59.20
2022-11-14T10:03:21.692Z,57.46
2022-11-14T10:06:29.260Z,57.73
2022-11-14T10:09:20.997Z,57.72
2022-11-14T10:12:10.585Z,56.17
2022-11-14T10:14:58.251Z,56.73
2022-11-14T10:18:05.229Z,56.67
2022-11-14T10:21:03.960Z,55.92
2022-11-14T10:24:05.854Z,54.74
2022-11-14T10:27:02.187Z,55.44
2022-11-14T10:29:52.457Z,55.38
2022-11-14T10:32:50.457Z,55.04
2022-11-14T10:35:38.468Z,56.72
2022-11-14T10:38:42.724Z,55.98
2022-11-14T10:41:56.008Z,54.57
2022-11-14T10:44:25.223Z,55.27
2022-11-14T10:47:13.579Z,58.36
2022-11-14T10:50:19.907Z,54.72
2022-11-14T10:53:05.969Z,54.28
2022-11-14T10:56:04.353Z,53.17
2022-11-14T10:58:47.056Z,52.87
2022-11-14T11:01:44.199Z,51.60
2022-11-14T11:04:30.036Z,52.34
2022-11-14T11:07:44.190Z,53.79
2022-11-14T11:10:49.867Z,55.52
2022-11-14T11:13:51.240Z,55.25
2022-11-14T11:16:37.404Z,53.85
2022-11-14T11:19:26.401Z,53.49
2022-11-14T11:22:51.219Z,53.28
2022-11-14T11:25:39.155Z,52.47
2022-11-14T11:28:25.258Z,52.62
2022-11-14T11:31:11.764Z,52.87
2022-11-14T11:34:03.397Z,53.47
2022-11-14T11:36:54.089Z,53.13
2022-11-14T11:39:52.106Z,54.60
2022-11-14T11:45:47.639Z,55.05
2022-11-14T11:48:46.562Z,53.66
2022-11-14T11:51:46.362Z,52.97
2022-11-14T11:54:51.905Z,54.25
2022-11-14T11:58:02.510Z,55.51
2022-11-14T12:00:53.047Z,54.82
2022-11-14T12:03:40.586Z,54.87
2022-11-14T12:06:28.708Z,54.81
2022-11-14T12:09:17.663Z,56.31
2022-11-14T12:12:10.837Z,55.64
2022-11-14T12:15:28.933Z,54.61
2022-11-14T12:18:18.230Z,54.10
2022-11-14T12:21:04.120Z,55.25
2022-11-14T12:24:19.377Z,55.60
2022-11-14T12:27:11.647Z,54.74
2022-11-14T12:30:21.834Z,53.98
2022-11-14T12:33:15.746Z,55.75
2022-11-14T12:36:05.840Z,54.92
2022-11-14T12:38:53.722Z,53.77
2022-11-14T12:41:40.556Z,55.08
2022-11-14T12:44:29.689Z,53.76
2022-11-14T12:47:16.765Z,53.49
2022-11-14T12:50:39.913Z,55.49
2022-11-14T12:53:38.214Z,54.76
2022-11-14T12:56:30.792Z,54.33
2022-11-14T12:59:31.957Z,53.71
2022-11-14T13:02:45.236Z,53.19
2022-11-14T13:05:48.802Z,54.00
2022-11-14T13:09:12.775Z,53.82
2022-11-14T13:12:17.800Z,52.07
2022-11-14T13:15:43.479Z,51.27
2022-11-14T13:18:52.604Z,51.24
2022-11-14T13:21:47.711Z,50.62
2022-11-14T13:24:59.005Z,51.39
2022-11-14T13:28:06.376Z,51.72
2022-11-14T13:31:16.868Z,52.11
2022-11-14T13:34:40.963Z,50.68
2022-11-14T13:37:51.860Z,50.52
2022-11-14T13:40:57.049Z,51.04
2022-11-14T13:43:46.071Z,50.51
2022-11-14T13:46:44.205Z,50.45
2022-11-14T13:49:49.829Z,50.80
2022-11-14T13:52:42.849Z,51.49
2022-11-14T13:55:48.547Z,50.45
2022-11-14T13:59:08.095Z,51.42
2022-11-14T14:02:10.355Z,51.89
2022-11-14T14:05:11.518Z,51.68
2022-11-14T14:08:06.738Z,52.61
2022-11-14T14:11:04.936Z,50.95
2022-11-14T14:14:00.702Z,51.71
2022-11-14T14:16:57.376Z,51.59
2022-11-14T14:20:06.763Z,51.96
2022-11-14T14:23:07.166Z,52.62
2022-11-14T14:26:10.960Z,51.43
2022-11-14T14:29:33.902Z,52.22
2022-11-14T14:32:20.503Z,50.64
2022-11-14T14:35:26.476Z,49.89
2022-11-14T14:38:13.846Z,50.00
2022-11-14T14:41:07.418Z,50.37
2022-11-14T14:43:56.554Z,50.15
2022-11-14T14:46:45.083Z,50.36
2022-11-14T14:49:35.611Z,51.41
2022-11-14T14:52:37.077Z,51.93
2022-11-14T14:55:32.483Z,52.79
2022-11-14T14:58:22.757Z,53.66
2022-11-14T15:01:16.782Z,54.71
2022-11-14T15:04:05.710Z,54.89
2022-11-14T15:06:56.090Z,55.02
2022-11-14T15:10:00.520Z,56.05
2022-11-14T15:12:46.840Z,55.55
2022-11-14T15:15:33.410Z,55.53
2022-11-14T15:18:28.679Z,56.05
2022-11-14T15:21:29.322Z,55.93
2022-11-14T15:24:17.408Z,56.89
2022-11-14T15:27:05.579Z,56.82
2022-11-14T15:29:54.216Z,56.73
2022-11-14T15:32:50.065Z,56.28
2022-11-14T15:35:38.311Z,56.34
2022-11-14T15:41:32.425Z,56.18
2022-11-14T15:44:32.453Z,56.13
2022-11-14T15:47:29.659Z,57.34
2022-11-14T15:50:16.179Z,57.22
2022-11-14T15:53:05.046Z,56.89
2022-11-14T15:55:50.919Z,57.32
2022-11-14T15:58:37.145Z,57.36
2022-11-14T16:01:26.188Z,57.56
2022-11-14T16:04:18.532Z,57.58
2022-11-14T16:07:05.065Z,57.43
2022-11-14T16:09:51.491Z,58.07
2022-11-14T16:12:37.864Z,57.08
2022-11-14T16:15:23.908Z,57.68
2022-11-14T16:18:11.871Z,57.98
2022-11-14T16:20:59.545Z,58.03
2022-11-14T16:23:45.847Z,57.93
2022-11-14T16:26:33.014Z,57.76
2022-11-14T16:29:19.210Z,57.50
2022-11-14T16:32:05.463Z,57.81
2022-11-14T16:34:51.489Z,57.81
2022-11-14T16:37:38.185Z,57.98
2022-11-14T16:40:27.800Z,58.05
2022-11-14T16:43:14.893Z,57.74
2022-11-14T16:46:05.448Z,58.38
2022-11-14T16:48:51.355Z,58.24
2022-11-14T16:51:48.569Z,58.64
2022-11-14T16:54:35.829Z,59.09
2022-11-14T16:57:22.534Z,58.94
2022-11-14T17:00:12.459Z,58.93
2022-11-14T17:02:59.382Z,59.43
2022-11-14T17:05:46.980Z,59.34
2022-11-14T17:08:33.078Z,59.34
2022-11-14T17:11:19.274Z,59.11
2022-11-14T17:14:07.545Z,59.53
2022-11-14T17:16:53.615Z,58.84
2022-11-14T17:19:45.813Z,60.16
2022-11-14T17:22:34.015Z,60.05
2022-11-14T17:25:20.624Z,60.43
2022-11-14T17:28:06.799Z,59.40
2022-11-14T17:30:52.869Z,60.56
2022-11-14T17:33:39.059Z,61.15
2022-11-14T17:36:27.204Z,61.54
2022-11-14T17:39:13.245Z,61.74
2022-11-14T17:41:59.286Z,61.32
2022-11-14T17:44:45.193Z,61.46
2022-11-14T17:47:31.348Z,61.88
2022-11-14T17:50:17.510Z,62.03
2022-11-14T17:53:03.523Z,62.05
2022-11-14T17:55:57.340Z,61.51
2022-11-14T17:58:44.009Z,61.67
2022-11-14T18:01:31.639Z,62.05
2022-11-14T18:04:17.998Z,62.06
2022-11-14T18:07:04.983Z,62.55
2022-11-14T18:09:51.283Z,62.67
2022-11-14T18:12:37.454Z,62.20
2022-11-14T18:15:27.722Z,63.35
2022-11-14T18:18:14.447Z,62.85
2022-11-14T18:21:07.751Z,62.55
2022-11-14T18:23:55.555Z,62.81
2022-11-14T18:26:41.714Z,62.74
2022-11-14T18:29:28.534Z,63.51
2022-11-14T18:32:15.741Z,63.13
2022-11-14T18:35:01.596Z,62.90
2022-11-14T18:37:47.818Z,62.91
2022-11-14T18:40:34.098Z,62.79
2022-11-14T18:43:20.273Z,62.56
2022-11-14T18:46:18.053Z,61.83
2022-11-14T18:49:04.520Z,61.59
2022-11-14T18:51:50.722Z,61.96
2022-11-14T18:54:38.264Z,61.05
2022-11-14T18:57:24.312Z,60.83
2022-11-14T19:00:11.641Z,62.20
2022-11-14T19:03:01.039Z,62.86
2022-11-14T19:05:51.027Z,62.82
2022-11-14T19:08:37.277Z,62.84
2022-11-14T19:11:42.962Z,62.84
2022-11-14T19:14:29.433Z,63.44
2022-11-14T19:17:20.715Z,63.62
2022-11-14T19:20:12.924Z,63.45
2022-11-14T19:23:00.256Z,63.27
2022-11-14T19:25:48.067Z,63.16
2022-11-14T19:28:34.197Z,63.21
2022-11-14T19:31:21.029Z,63.00
2022-11-14T19:34:07.104Z,62.97
2022-11-14T19:37:02.022Z,62.83
2022-11-14T19:39:52.562Z,62.74
2022-11-14T19:42:38.644Z,62.71
2022-11-14T19:45:25.097Z,62.89
2022-11-14T19:48:11.396Z,62.77
2022-11-14T19:51:02.564Z,61.73
2022-11-14T19:53:49.074Z,63.15
2022-11-14T19:56:35.302Z,61.78
2022-11-14T19:59:26.251Z,61.94
2022-11-14T20:02:13.414Z,62.13
2022-11-14T20:04:59.537Z,61.71
2022-11-14T20:07:45.655Z,62.47
2022-11-14T20:10:31.895Z,63.35
2022-11-14T20:13:17.952Z,63.44
2022-11-14T20:16:15.070Z,63.38
2022-11-14T20:19:02.036Z,63.12
2022-11-14T20:21:49.043Z,63.92
2022-11-14T20:24:35.127Z,63.66
2022-11-14T20:27:21.195Z,63.57
2022-11-14T20:30:07.916Z,63.47
2022-11-14T20:32:54.278Z,63.71
2022-11-14T20:35:40.469Z,63.49
2022-11-14T20:38:29.083Z,63.27
2022-11-14T20:41:15.785Z,62.95
2022-11-14T20:44:03.572Z,63.74
2022-11-14T20:46:49.736Z,63.43
2022-11-14T20:49:35.770Z,63.52
2022-11-14T20:52:22.093Z,63.34
2022-11-14T20:55:11.757Z,63.13
2022-11-14T20:57:57.936Z,63.01
2022-11-14T21:00:43.957Z,63.25
2022-11-14T21:03:30.569Z,63.42
2022-11-14T21:06:17.485Z,63.04
2022-11-14T21:09:03.968Z,62.85
2022-11-14T21:11:50.211Z,62.59
2022-11-14T21:14:36.196Z,62.37
2022-11-14T21:17:22.267Z,62.34
2022-11-14T21:20:09.434Z,62.84
2022-11-14T21:22:55.724Z,62.08
2022-11-14T21:25:41.973Z,61.01
2022-11-14T21:28:30.242Z,62.02
2022-11-14T21:31:31.662Z,62.73
2022-11-14T21:34:18.205Z,62.74
2022-11-14T21:37:04.486Z,63.30
2022-11-14T21:39:50.514Z,63.09
2022-11-14T21:42:36.671Z,63.44
2022-11-14T21:45:22.861Z,63.94
2022-11-14T21:48:08.966Z,63.95
2022-11-14T21:51:02.554Z,63.51
2022-11-14T21:53:49.969Z,63.46
2022-11-14T21:56:37.277Z,63.94
2022-11-14T21:59:27.463Z,63.93
2022-11-14T22:02:32.087Z,64.00
2022-11-14T22:05:17.940Z,64.57
2022-11-14T22:08:04.292Z,64.29
2022-11-14T22:10:49.982Z,64.00
2022-11-14T22:13:35.977Z,64.04
2022-11-14T22:16:22.040Z,64.78
2022-11-14T22:19:07.906Z,63.91
2022-11-14T22:21:54.459Z,64.79
2022-11-14T22:24:43.787Z,64.16
2022-11-14T22:27:30.560Z,64.46
2022-11-14T22:30:16.817Z,64.62
2022-11-14T22:33:02.905Z,64.78
2022-11-14T22:35:48.870Z,64.74
2022-11-14T22:38:36.074Z,64.67
2022-11-14T22:41:32.789Z,65.39
2022-11-14T22:44:19.715Z,65.19
2022-11-14T22:47:05.781Z,65.47
2022-11-14T22:49:51.776Z,65.78
2022-11-14T22:52:37.960Z,65.70
2022-11-14T22:55:23.770Z,66.00
2022-11-14T22:58:09.969Z,64.17
2022-11-14T23:00:56.032Z,64.23
2022-11-14T23:03:42.193Z,63.78
2022-11-14T23:06:31.661Z,65.61
2022-11-14T23:09:33.131Z,65.95
2022-11-14T23:12:15.776Z,66.06
2022-11-14T23:15:14.229Z,66.50
2022-11-14T23:18:12.086Z,66.22
2022-11-14T23:21:15.297Z,66.52
2022-11-14T23:24:15.631Z,66.04
2022-11-14T23:27:13.793Z,66.85
2022-11-14T23:30:12.239Z,67.44
2022-11-14T23:33:09.791Z,67.49
2022-11-14T23:36:08.272Z,67.29
2022-11-14T23:38:56.198Z,66.91
2022-11-14T23:41:54.026Z,66.59
2022-11-14T23:44:51.802Z,67.24
2022-11-14T23:47:50.131Z,66.61
2022-11-14T23:50:41.364Z,66.76
2022-11-14T23:53:39.419Z,67.25
2022-11-14T23:56:25.819Z,66.96
2022-11-14T23:59:11.816Z,67.47
